sensor_id;sensor_type;location;lat;lon;timestamp;P1;durP1;ratioP1;P2;durP2;ratioP2
75639;SDS011;64233;51.486;6.332;2023-08-01T00:01:41;1.35;;;0.77;;
75639;SDS011;64233;51.486;6.332;2023-08-01T00:04:06;1.83;;;1.10;;
75639;SDS011;64233;51.486;6.332;2023-08-01T00:06:32;1.42;;;1.13;;
75639;SDS011;64233;51.486;6.332;2023-08-01T00:08:57;1.65;;;1.20;;
75639;SDS011;64233;51.486;6.332;2023-08-01T00:11:22;1.98;;;1.10;;
75639;SDS011;64233;51.486;6.332;2023-08-01T00:13:47;1.40;;;1.10;;
75639;SDS011;64233;51.486;6.332;2023-08-01T00:16:13;1.48;;;1.10;;
75639;SDS011;64233;51.486;6.332;2023-08-01T00:18:38;1.77;;;1.25;;
75639;SDS011;64233;51.486;6.332;2023-08-01T00:21:03;1.70;;;1.02;;
75639;SDS011;64233;51.486;6.332;2023-08-01T00:23:31;1.67;;;1.38;;
75639;SDS011;64233;51.486;6.332;2023-08-01T00:25:56;2.72;;;1.50;;
75639;SDS011;64233;51.486;6.332;2023-08-01T00:28:22;11.27;;;1.60;;
75639;SDS011;64233;51.486;6.332;2023-08-01T00:30:47;3.35;;;1.92;;
75639;SDS011;64233;51.486;6.332;2023-08-01T00:33:12;2.83;;;2.35;;
75639;SDS011;64233;51.486;6.332;2023-08-01T00:35:39;2.58;;;1.50;;
75639;SDS011;64233;51.486;6.332;2023-08-01T00:38:04;3.28;;;2.05;;
75639;SDS011;64233;51.486;6.332;2023-08-01T00:40:30;2.08;;;1.60;;
75639;SDS011;64233;51.486;6.332;2023-08-01T00:42:56;1.45;;;1.25;;
75639;SDS011;64233;51.486;6.332;2023-08-01T00:45:21;4.40;;;1.42;;
75639;SDS011;64233;51.486;6.332;2023-08-01T00:47:49;1.92;;;1.33;;
75639;SDS011;64233;51.486;6.332;2023-08-01T00:50:16;2.35;;;1.38;;
75639;SDS011;64233;51.486;6.332;2023-08-01T00:52:41;3.63;;;1.30;;
75639;SDS011;64233;51.486;6.332;2023-08-01T00:55:06;2.50;;;1.40;;
75639;SDS011;64233;51.486;6.332;2023-08-01T00:57:32;1.90;;;1.60;;
75639;SDS011;64233;51.486;6.332;2023-08-01T00:59:59;1.65;;;1.27;;
75639;SDS011;64233;51.486;6.332;2023-08-01T01:02:24;1.65;;;1.40;;
75639;SDS011;64233;51.486;6.332;2023-08-01T01:04:49;1.73;;;1.38;;
75639;SDS011;64233;51.486;6.332;2023-08-01T01:07:15;1.57;;;1.47;;
75639;SDS011;64233;51.486;6.332;2023-08-01T01:09:42;2.55;;;1.73;;
75639;SDS011;64233;51.486;6.332;2023-08-01T01:12:07;2.53;;;1.63;;
75639;SDS011;64233;51.486;6.332;2023-08-01T01:14:33;5.13;;;1.50;;
75639;SDS011;64233;51.486;6.332;2023-08-01T01:16:58;2.10;;;1.47;;
75639;SDS011;64233;51.486;6.332;2023-08-01T01:19:24;1.88;;;1.55;;
75639;SDS011;64233;51.486;6.332;2023-08-01T01:24:44;2.42;;;1.70;;
75639;SDS011;64233;51.486;6.332;2023-08-01T01:27:11;3.20;;;2.00;;
75639;SDS011;64233;51.486;6.332;2023-08-01T01:29:37;2.88;;;1.80;;
75639;SDS011;64233;51.486;6.332;2023-08-01T01:32:04;9.52;;;2.40;;
75639;SDS011;64233;51.486;6.332;2023-08-01T01:34:31;1.98;;;1.42;;
75639;SDS011;64233;51.486;6.332;2023-08-01T01:36:56;4.07;;;2.15;;
75639;SDS011;64233;51.486;6.332;2023-08-01T01:39:21;2.42;;;2.00;;
75639;SDS011;64233;51.486;6.332;2023-08-01T01:41:47;2.22;;;1.70;;
75639;SDS011;64233;51.486;6.332;2023-08-01T01:44:12;5.17;;;2.63;;
75639;SDS011;64233;51.486;6.332;2023-08-01T01:46:37;4.63;;;2.33;;
75639;SDS011;64233;51.486;6.332;2023-08-01T01:49:02;3.60;;;2.28;;
75639;SDS011;64233;51.486;6.332;2023-08-01T01:51:28;4.82;;;2.92;;
75639;SDS011;64233;51.486;6.332;2023-08-01T01:53:55;7.10;;;3.38;;
75639;SDS011;64233;51.486;6.332;2023-08-01T01:56:20;4.73;;;2.87;;
75639;SDS011;64233;51.486;6.332;2023-08-01T01:58:45;4.10;;;3.00;;
75639;SDS011;64233;51.486;6.332;2023-08-01T02:01:10;5.47;;;3.58;;
75639;SDS011;64233;51.486;6.332;2023-08-01T02:03:36;6.22;;;3.25;;
75639;SDS011;64233;51.486;6.332;2023-08-01T02:06:01;6.13;;;4.05;;
75639;SDS011;64233;51.486;6.332;2023-08-01T02:08:28;9.38;;;4.43;;
75639;SDS011;64233;51.486;6.332;2023-08-01T02:10:54;6.28;;;4.30;;
75639;SDS011;64233;51.486;6.332;2023-08-01T02:13:20;7.28;;;4.47;;
75639;SDS011;64233;51.486;6.332;2023-08-01T02:15:45;9.63;;;5.30;;
75639;SDS011;64233;51.486;6.332;2023-08-01T02:18:11;9.60;;;5.40;;
75639;SDS011;64233;51.486;6.332;2023-08-01T02:20:36;8.63;;;5.05;;
75639;SDS011;64233;51.486;6.332;2023-08-01T02:23:01;10.50;;;6.15;;
75639;SDS011;64233;51.486;6.332;2023-08-01T02:25:26;8.93;;;5.32;;
75639;SDS011;64233;51.486;6.332;2023-08-01T02:27:52;11.55;;;5.93;;
75639;SDS011;64233;51.486;6.332;2023-08-01T02:30:17;8.48;;;5.38;;
75639;SDS011;64233;51.486;6.332;2023-08-01T02:32:42;7.35;;;5.28;;
75639;SDS011;64233;51.486;6.332;2023-08-01T02:35:08;8.85;;;6.28;;
75639;SDS011;64233;51.486;6.332;2023-08-01T02:37:33;11.02;;;5.72;;
75639;SDS011;64233;51.486;6.332;2023-08-01T02:39:58;10.65;;;4.90;;
75639;SDS011;64233;51.486;6.332;2023-08-01T02:42:23;9.63;;;6.18;;
75639;SDS011;64233;51.486;6.332;2023-08-01T02:44:49;10.50;;;5.63;;
75639;SDS011;64233;51.486;6.332;2023-08-01T02:47:14;11.80;;;6.23;;
75639;SDS011;64233;51.486;6.332;2023-08-01T02:49:39;11.93;;;6.78;;
75639;SDS011;64233;51.486;6.332;2023-08-01T02:52:05;11.77;;;6.17;;
75639;SDS011;64233;51.486;6.332;2023-08-01T02:54:30;9.90;;;5.75;;
75639;SDS011;64233;51.486;6.332;2023-08-01T02:56:55;10.07;;;5.43;;
75639;SDS011;64233;51.486;6.332;2023-08-01T02:59:21;8.77;;;5.37;;
75639;SDS011;64233;51.486;6.332;2023-08-01T03:01:46;10.77;;;6.10;;
75639;SDS011;64233;51.486;6.332;2023-08-01T03:04:11;16.20;;;6.28;;
75639;SDS011;64233;51.486;6.332;2023-08-01T03:06:36;17.30;;;6.85;;
75639;SDS011;64233;51.486;6.332;2023-08-01T03:09:02;12.25;;;5.90;;
75639;SDS011;64233;51.486;6.332;2023-08-01T03:11:27;12.55;;;6.20;;
75639;SDS011;64233;51.486;6.332;2023-08-01T03:13:53;9.48;;;5.95;;
75639;SDS011;64233;51.486;6.332;2023-08-01T03:16:18;7.25;;;4.85;;
75639;SDS011;64233;51.486;6.332;2023-08-01T03:18:43;9.80;;;5.38;;
75639;SDS011;64233;51.486;6.332;2023-08-01T03:21:09;9.30;;;4.88;;
75639;SDS011;64233;51.486;6.332;2023-08-01T03:23:34;8.18;;;5.85;;
75639;SDS011;64233;51.486;6.332;2023-08-01T03:26:00;12.75;;;6.07;;
75639;SDS011;64233;51.486;6.332;2023-08-01T03:28:25;11.30;;;6.75;;
75639;SDS011;64233;51.486;6.332;2023-08-01T03:30:51;13.25;;;6.45;;
75639;SDS011;64233;51.486;6.332;2023-08-01T03:33:18;10.95;;;6.80;;
75639;SDS011;64233;51.486;6.332;2023-08-01T03:35:44;11.13;;;6.40;;
75639;SDS011;64233;51.486;6.332;2023-08-01T03:38:09;13.90;;;6.65;;
75639;SDS011;64233;51.486;6.332;2023-08-01T03:40:34;14.80;;;6.65;;
75639;SDS011;64233;51.486;6.332;2023-08-01T03:43:00;11.73;;;6.55;;
75639;SDS011;64233;51.486;6.332;2023-08-01T03:45:25;12.93;;;7.28;;
75639;SDS011;64233;51.486;6.332;2023-08-01T03:47:50;11.68;;;6.80;;
75639;SDS011;64233;51.486;6.332;2023-08-01T03:50:15;13.20;;;6.93;;
75639;SDS011;64233;51.486;6.332;2023-08-01T03:52:41;15.23;;;7.05;;
75639;SDS011;64233;51.486;6.332;2023-08-01T03:55:06;13.60;;;7.22;;
75639;SDS011;64233;51.486;6.332;2023-08-01T03:57:32;14.18;;;7.47;;
75639;SDS011;64233;51.486;6.332;2023-08-01T03:59:58;13.30;;;7.15;;
75639;SDS011;64233;51.486;6.332;2023-08-01T04:02:24;13.23;;;7.22;;
75639;SDS011;64233;51.486;6.332;2023-08-01T04:04:49;13.85;;;7.90;;
75639;SDS011;64233;51.486;6.332;2023-08-01T04:07:15;11.98;;;6.90;;
75639;SDS011;64233;51.486;6.332;2023-08-01T04:09:40;15.25;;;8.05;;
75639;SDS011;64233;51.486;6.332;2023-08-01T04:12:05;13.18;;;8.10;;
75639;SDS011;64233;51.486;6.332;2023-08-01T04:14:31;12.25;;;7.28;;
75639;SDS011;64233;51.486;6.332;2023-08-01T04:16:57;17.15;;;7.13;;
75639;SDS011;64233;51.486;6.332;2023-08-01T04:19:22;12.40;;;7.97;;
75639;SDS011;64233;51.486;6.332;2023-08-01T04:21:48;16.92;;;8.38;;
75639;SDS011;64233;51.486;6.332;2023-08-01T04:24:13;16.75;;;8.80;;
75639;SDS011;64233;51.486;6.332;2023-08-01T04:26:38;20.05;;;8.13;;
75639;SDS011;64233;51.486;6.332;2023-08-01T04:29:04;16.40;;;8.15;;
75639;SDS011;64233;51.486;6.332;2023-08-01T04:31:29;15.93;;;7.43;;
75639;SDS011;64233;51.486;6.332;2023-08-01T04:33:54;17.20;;;8.50;;
75639;SDS011;64233;51.486;6.332;2023-08-01T04:36:19;15.30;;;8.90;;
75639;SDS011;64233;51.486;6.332;2023-08-01T04:38:45;15.05;;;8.82;;
75639;SDS011;64233;51.486;6.332;2023-08-01T04:41:10;16.02;;;8.57;;
75639;SDS011;64233;51.486;6.332;2023-08-01T04:43:35;16.08;;;8.65;;
75639;SDS011;64233;51.486;6.332;2023-08-01T04:46:00;19.07;;;9.57;;
75639;SDS011;64233;51.486;6.332;2023-08-01T04:48:26;21.77;;;9.35;;
75639;SDS011;64233;51.486;6.332;2023-08-01T04:50:51;14.55;;;8.32;;
75639;SDS011;64233;51.486;6.332;2023-08-01T04:53:16;18.37;;;9.20;;
75639;SDS011;64233;51.486;6.332;2023-08-01T04:55:41;20.52;;;8.70;;
75639;SDS011;64233;51.486;6.332;2023-08-01T04:58:07;15.20;;;8.85;;
75639;SDS011;64233;51.486;6.332;2023-08-01T05:00:32;17.88;;;8.38;;
75639;SDS011;64233;51.486;6.332;2023-08-01T05:02:57;14.65;;;7.88;;
75639;SDS011;64233;51.486;6.332;2023-08-01T05:05:22;14.48;;;7.97;;
75639;SDS011;64233;51.486;6.332;2023-08-01T05:07:48;21.95;;;10.10;;
75639;SDS011;64233;51.486;6.332;2023-08-01T05:10:13;20.17;;;9.07;;
75639;SDS011;64233;51.486;6.332;2023-08-01T05:12:38;20.88;;;9.90;;
75639;SDS011;64233;51.486;6.332;2023-08-01T05:15:04;19.10;;;9.33;;
75639;SDS011;64233;51.486;6.332;2023-08-01T05:17:29;19.48;;;8.80;;
75639;SDS011;64233;51.486;6.332;2023-08-01T05:19:55;22.50;;;9.85;;
75639;SDS011;64233;51.486;6.332;2023-08-01T05:22:20;18.27;;;8.20;;
75639;SDS011;64233;51.486;6.332;2023-08-01T05:24:45;21.20;;;9.25;;
75639;SDS011;64233;51.486;6.332;2023-08-01T05:27:11;14.52;;;8.65;;
75639;SDS011;64233;51.486;6.332;2023-08-01T05:29:36;12.57;;;7.43;;
75639;SDS011;64233;51.486;6.332;2023-08-01T05:32:01;17.95;;;8.52;;
75639;SDS011;64233;51.486;6.332;2023-08-01T05:34:27;18.67;;;8.07;;
75639;SDS011;64233;51.486;6.332;2023-08-01T05:36:52;25.77;;;9.25;;
75639;SDS011;64233;51.486;6.332;2023-08-01T05:39:17;15.25;;;8.65;;
75639;SDS011;64233;51.486;6.332;2023-08-01T05:41:43;17.05;;;8.48;;
75639;SDS011;64233;51.486;6.332;2023-08-01T05:44:08;22.98;;;9.05;;
75639;SDS011;64233;51.486;6.332;2023-08-01T05:46:33;19.10;;;8.40;;
75639;SDS011;64233;51.486;6.332;2023-08-01T05:48:59;17.08;;;8.18;;
75639;SDS011;64233;51.486;6.332;2023-08-01T05:51:24;19.80;;;8.38;;
75639;SDS011;64233;51.486;6.332;2023-08-01T05:53:49;16.65;;;8.18;;
75639;SDS011;64233;51.486;6.332;2023-08-01T05:56:15;20.48;;;8.57;;
75639;SDS011;64233;51.486;6.332;2023-08-01T05:58:40;12.65;;;7.60;;
75639;SDS011;64233;51.486;6.332;2023-08-01T06:01:05;14.35;;;8.70;;
75639;SDS011;64233;51.486;6.332;2023-08-01T06:03:31;16.20;;;8.30;;
75639;SDS011;64233;51.486;6.332;2023-08-01T06:05:56;15.90;;;8.97;;
75639;SDS011;64233;51.486;6.332;2023-08-01T06:08:21;15.43;;;7.88;;
75639;SDS011;64233;51.486;6.332;2023-08-01T06:10:46;14.98;;;7.70;;
75639;SDS011;64233;51.486;6.332;2023-08-01T06:13:12;21.30;;;9.00;;
75639;SDS011;64233;51.486;6.332;2023-08-01T06:15:37;20.05;;;8.55;;
75639;SDS011;64233;51.486;6.332;2023-08-01T06:18:05;18.30;;;9.32;;
75639;SDS011;64233;51.486;6.332;2023-08-01T06:20:30;15.10;;;7.10;;
75639;SDS011;64233;51.486;6.332;2023-08-01T06:22:56;16.17;;;7.47;;
75639;SDS011;64233;51.486;6.332;2023-08-01T06:25:21;13.65;;;7.93;;
75639;SDS011;64233;51.486;6.332;2023-08-01T06:27:46;17.80;;;7.67;;
75639;SDS011;64233;51.486;6.332;2023-08-01T06:30:11;16.70;;;7.00;;
75639;SDS011;64233;51.486;6.332;2023-08-01T06:32:37;15.13;;;7.15;;
75639;SDS011;64233;51.486;6.332;2023-08-01T06:35:02;16.65;;;8.38;;
75639;SDS011;64233;51.486;6.332;2023-08-01T06:37:28;12.77;;;6.60;;
75639;SDS011;64233;51.486;6.332;2023-08-01T06:39:54;18.05;;;7.70;;
75639;SDS011;64233;51.486;6.332;2023-08-01T06:42:19;13.98;;;7.60;;
75639;SDS011;64233;51.486;6.332;2023-08-01T06:44:45;10.43;;;6.67;;
75639;SDS011;64233;51.486;6.332;2023-08-01T06:47:11;13.68;;;6.68;;
75639;SDS011;64233;51.486;6.332;2023-08-01T06:49:36;12.77;;;6.18;;
75639;SDS011;64233;51.486;6.332;2023-08-01T06:52:01;20.67;;;6.70;;
75639;SDS011;64233;51.486;6.332;2023-08-01T06:54:26;16.63;;;7.47;;
75639;SDS011;64233;51.486;6.332;2023-08-01T06:56:52;12.55;;;6.90;;
75639;SDS011;64233;51.486;6.332;2023-08-01T06:59:17;13.35;;;6.45;;
75639;SDS011;64233;51.486;6.332;2023-08-01T07:01:42;16.10;;;8.03;;
75639;SDS011;64233;51.486;6.332;2023-08-01T07:04:11;14.07;;;6.45;;
75639;SDS011;64233;51.486;6.332;2023-08-01T07:06:37;13.25;;;6.47;;
75639;SDS011;64233;51.486;6.332;2023-08-01T07:09:03;13.98;;;6.55;;
75639;SDS011;64233;51.486;6.332;2023-08-01T07:11:28;13.98;;;6.47;;
75639;SDS011;64233;51.486;6.332;2023-08-01T07:13:53;15.65;;;6.22;;
75639;SDS011;64233;51.486;6.332;2023-08-01T07:16:19;10.73;;;6.40;;
75639;SDS011;64233;51.486;6.332;2023-08-01T07:18:44;13.35;;;6.22;;
75639;SDS011;64233;51.486;6.332;2023-08-01T07:21:10;14.98;;;5.95;;
75639;SDS011;64233;51.486;6.332;2023-08-01T07:23:35;14.30;;;5.88;;
75639;SDS011;64233;51.486;6.332;2023-08-01T07:26:01;8.80;;;5.85;;
75639;SDS011;64233;51.486;6.332;2023-08-01T07:28:26;11.95;;;5.93;;
75639;SDS011;64233;51.486;6.332;2023-08-01T07:31:02;12.23;;;5.95;;
75639;SDS011;64233;51.486;6.332;2023-08-01T07:33:29;11.23;;;6.30;;
75639;SDS011;64233;51.486;6.332;2023-08-01T07:35:54;10.50;;;5.57;;
75639;SDS011;64233;51.486;6.332;2023-08-01T07:38:19;11.10;;;5.78;;
75639;SDS011;64233;51.486;6.332;2023-08-01T07:40:45;15.63;;;5.93;;
75639;SDS011;64233;51.486;6.332;2023-08-01T07:43:10;12.43;;;5.80;;
75639;SDS011;64233;51.486;6.332;2023-08-01T07:45:36;11.77;;;6.35;;
75639;SDS011;64233;51.486;6.332;2023-08-01T07:48:01;12.52;;;6.60;;
75639;SDS011;64233;51.486;6.332;2023-08-01T07:50:27;12.68;;;6.20;;
75639;SDS011;64233;51.486;6.332;2023-08-01T07:52:52;17.38;;;5.78;;
75639;SDS011;64233;51.486;6.332;2023-08-01T07:55:18;10.35;;;6.07;;
75639;SDS011;64233;51.486;6.332;2023-08-01T07:57:43;14.15;;;5.93;;
75639;SDS011;64233;51.486;6.332;2023-08-01T08:00:09;12.60;;;6.10;;
75639;SDS011;64233;51.486;6.332;2023-08-01T08:02:35;10.45;;;5.57;;
75639;SDS011;64233;51.486;6.332;2023-08-01T08:05:00;9.43;;;5.72;;
75639;SDS011;64233;51.486;6.332;2023-08-01T08:07:26;12.07;;;5.57;;
75639;SDS011;64233;51.486;6.332;2023-08-01T08:09:51;12.25;;;5.22;;
75639;SDS011;64233;51.486;6.332;2023-08-01T08:12:16;7.32;;;4.85;;
75639;SDS011;64233;51.486;6.332;2023-08-01T08:14:41;10.63;;;6.13;;
75639;SDS011;64233;51.486;6.332;2023-08-01T08:17:07;10.50;;;5.35;;
75639;SDS011;64233;51.486;6.332;2023-08-01T08:19:32;10.00;;;4.57;;
75639;SDS011;64233;51.486;6.332;2023-08-01T08:21:57;10.88;;;4.78;;
75639;SDS011;64233;51.486;6.332;2023-08-01T08:24:22;7.25;;;5.20;;
75639;SDS011;64233;51.486;6.332;2023-08-01T08:26:48;7.38;;;4.72;;
75639;SDS011;64233;51.486;6.332;2023-08-01T08:29:13;9.00;;;4.97;;
75639;SDS011;64233;51.486;6.332;2023-08-01T08:31:38;8.75;;;4.72;;
75639;SDS011;64233;51.486;6.332;2023-08-01T08:34:04;9.33;;;4.30;;
75639;SDS011;64233;51.486;6.332;2023-08-01T08:36:29;9.18;;;4.72;;
75639;SDS011;64233;51.486;6.332;2023-08-01T08:38:54;9.18;;;4.60;;
75639;SDS011;64233;51.486;6.332;2023-08-01T08:41:20;6.32;;;4.55;;
75639;SDS011;64233;51.486;6.332;2023-08-01T08:43:47;8.35;;;4.15;;
75639;SDS011;64233;51.486;6.332;2023-08-01T08:46:15;7.03;;;3.90;;
75639;SDS011;64233;51.486;6.332;2023-08-01T08:48:41;5.65;;;3.80;;
75639;SDS011;64233;51.486;6.332;2023-08-01T08:51:09;5.25;;;3.55;;
75639;SDS011;64233;51.486;6.332;2023-08-01T08:53:35;6.68;;;3.15;;
75639;SDS011;64233;51.486;6.332;2023-08-01T08:56:01;4.55;;;3.15;;
75639;SDS011;64233;51.486;6.332;2023-08-01T08:58:29;4.50;;;3.45;;
75639;SDS011;64233;51.486;6.332;2023-08-01T09:00:56;7.10;;;3.92;;
75639;SDS011;64233;51.486;6.332;2023-08-01T09:03:22;5.10;;;3.30;;
75639;SDS011;64233;51.486;6.332;2023-08-01T09:05:50;7.20;;;3.67;;
75639;SDS011;64233;51.486;6.332;2023-08-01T09:08:23;5.90;;;3.80;;
75639;SDS011;64233;51.486;6.332;2023-08-01T09:10:52;5.93;;;3.15;;
75639;SDS011;64233;51.486;6.332;2023-08-01T09:13:17;4.22;;;3.20;;
75639;SDS011;64233;51.486;6.332;2023-08-01T09:15:43;4.32;;;3.17;;
75639;SDS011;64233;51.486;6.332;2023-08-01T09:18:11;6.25;;;3.42;;
75639;SDS011;64233;51.486;6.332;2023-08-01T09:20:43;9.65;;;3.60;;
75639;SDS011;64233;51.486;6.332;2023-08-01T09:23:10;9.32;;;2.90;;
75639;SDS011;64233;51.486;6.332;2023-08-01T09:25:36;4.45;;;2.90;;
75639;SDS011;64233;51.486;6.332;2023-08-01T09:28:01;5.00;;;2.95;;
75639;SDS011;64233;51.486;6.332;2023-08-01T09:30:26;4.65;;;2.70;;
75639;SDS011;64233;51.486;6.332;2023-08-01T09:32:53;4.38;;;2.47;;
75639;SDS011;64233;51.486;6.332;2023-08-01T09:35:20;4.65;;;3.45;;
75639;SDS011;64233;51.486;6.332;2023-08-01T09:37:46;4.00;;;2.78;;
75639;SDS011;64233;51.486;6.332;2023-08-01T09:40:12;5.18;;;2.95;;
75639;SDS011;64233;51.486;6.332;2023-08-01T09:42:39;4.57;;;3.35;;
75639;SDS011;64233;51.486;6.332;2023-08-01T09:45:14;4.80;;;3.40;;
75639;SDS011;64233;51.486;6.332;2023-08-01T09:47:40;4.22;;;2.70;;
75639;SDS011;64233;51.486;6.332;2023-08-01T09:50:10;6.53;;;3.20;;
75639;SDS011;64233;51.486;6.332;2023-08-01T09:52:36;6.30;;;3.35;;
75639;SDS011;64233;51.486;6.332;2023-08-01T09:55:02;6.38;;;3.40;;
75639;SDS011;64233;51.486;6.332;2023-08-01T09:57:28;6.28;;;3.03;;
75639;SDS011;64233;51.486;6.332;2023-08-01T09:59:58;8.70;;;3.63;;
75639;SDS011;64233;51.486;6.332;2023-08-01T10:02:24;3.85;;;2.90;;
75639;SDS011;64233;51.486;6.332;2023-08-01T10:04:54;6.70;;;3.63;;
75639;SDS011;64233;51.486;6.332;2023-08-01T10:07:23;4.78;;;3.05;;
75639;SDS011;64233;51.486;6.332;2023-08-01T10:09:53;3.17;;;2.72;;
75639;SDS011;64233;51.486;6.332;2023-08-01T10:12:20;8.80;;;3.72;;
75639;SDS011;64233;51.486;6.332;2023-08-01T10:14:48;7.47;;;3.47;;
75639;SDS011;64233;51.486;6.332;2023-08-01T10:17:14;10.55;;;3.75;;
75639;SDS011;64233;51.486;6.332;2023-08-01T10:19:41;9.98;;;4.10;;
75639;SDS011;64233;51.486;6.332;2023-08-01T10:22:07;7.82;;;3.88;;
75639;SDS011;64233;51.486;6.332;2023-08-01T10:24:34;5.63;;;3.97;;
75639;SDS011;64233;51.486;6.332;2023-08-01T10:27:13;7.72;;;4.07;;
75639;SDS011;64233;51.486;6.332;2023-08-01T10:29:39;5.50;;;3.58;;
75639;SDS011;64233;51.486;6.332;2023-08-01T10:32:08;8.02;;;3.42;;
75639;SDS011;64233;51.486;6.332;2023-08-01T10:34:34;10.70;;;4.20;;
75639;SDS011;64233;51.486;6.332;2023-08-01T10:37:00;3.88;;;2.67;;
75639;SDS011;64233;51.486;6.332;2023-08-01T10:39:26;3.47;;;2.40;;
75639;SDS011;64233;51.486;6.332;2023-08-01T10:44:24;3.78;;;2.10;;
75639;SDS011;64233;51.486;6.332;2023-08-01T10:46:51;4.90;;;1.80;;
75639;SDS011;64233;51.486;6.332;2023-08-01T10:49:18;6.43;;;1.42;;
75639;SDS011;64233;51.486;6.332;2023-08-01T10:51:45;1.98;;;1.52;;
75639;SDS011;64233;51.486;6.332;2023-08-01T10:54:20;1.92;;;1.17;;
75639;SDS011;64233;51.486;6.332;2023-08-01T10:56:48;3.15;;;0.82;;
75639;SDS011;64233;51.486;6.332;2023-08-01T10:59:14;5.75;;;1.25;;
75639;SDS011;64233;51.486;6.332;2023-08-01T11:01:44;8.02;;;1.90;;
75639;SDS011;64233;51.486;6.332;2023-08-01T11:04:16;4.55;;;1.58;;
75639;SDS011;64233;51.486;6.332;2023-08-01T11:06:44;1.83;;;1.20;;
75639;SDS011;64233;51.486;6.332;2023-08-01T11:09:23;1.70;;;1.30;;
75639;SDS011;64233;51.486;6.332;2023-08-01T11:11:50;4.53;;;1.33;;
75639;SDS011;64233;51.486;6.332;2023-08-01T11:14:21;2.92;;;1.13;;
75639;SDS011;64233;51.486;6.332;2023-08-01T11:16:49;2.42;;;1.35;;
75639;SDS011;64233;51.486;6.332;2023-08-01T11:19:19;6.35;;;1.85;;
75639;SDS011;64233;51.486;6.332;2023-08-01T11:21:45;4.25;;;1.60;;
75639;SDS011;64233;51.486;6.332;2023-08-01T11:24:10;3.42;;;1.33;;
75639;SDS011;64233;51.486;6.332;2023-08-01T11:26:35;5.22;;;2.80;;
75639;SDS011;64233;51.486;6.332;2023-08-01T11:29:04;7.70;;;2.20;;
75639;SDS011;64233;51.486;6.332;2023-08-01T11:31:30;2.92;;;1.80;;
75639;SDS011;64233;51.486;6.332;2023-08-01T11:33:56;4.95;;;2.10;;
75639;SDS011;64233;51.486;6.332;2023-08-01T11:36:26;4.32;;;2.30;;
75639;SDS011;64233;51.486;6.332;2023-08-01T11:38:54;7.63;;;1.90;;
75639;SDS011;64233;51.486;6.332;2023-08-01T11:41:22;7.13;;;2.35;;
75639;SDS011;64233;51.486;6.332;2023-08-01T11:43:48;4.78;;;2.10;;
75639;SDS011;64233;51.486;6.332;2023-08-01T11:46:13;5.88;;;2.00;;
75639;SDS011;64233;51.486;6.332;2023-08-01T11:48:39;3.40;;;1.58;;
75639;SDS011;64233;51.486;6.332;2023-08-01T11:51:09;2.38;;;1.35;;
75639;SDS011;64233;51.486;6.332;2023-08-01T11:53:34;6.95;;;1.88;;
75639;SDS011;64233;51.486;6.332;2023-08-01T11:56:03;5.05;;;1.90;;
75639;SDS011;64233;51.486;6.332;2023-08-01T11:58:32;4.53;;;1.80;;
75639;SDS011;64233;51.486;6.332;2023-08-01T12:01:04;6.47;;;1.75;;
75639;SDS011;64233;51.486;6.332;2023-08-01T12:03:31;4.30;;;1.52;;
75639;SDS011;64233;51.486;6.332;2023-08-01T12:06:06;2.17;;;1.30;;
75639;SDS011;64233;51.486;6.332;2023-08-01T12:08:33;2.20;;;1.55;;
75639;SDS011;64233;51.486;6.332;2023-08-01T12:10:59;4.18;;;1.67;;
75639;SDS011;64233;51.486;6.332;2023-08-01T12:13:25;3.97;;;1.40;;
75639;SDS011;64233;51.486;6.332;2023-08-01T12:15:57;3.92;;;1.67;;
75639;SDS011;64233;51.486;6.332;2023-08-01T12:18:22;4.72;;;1.48;;
75639;SDS011;64233;51.486;6.332;2023-08-01T12:20:48;5.63;;;1.52;;
75639;SDS011;64233;51.486;6.332;2023-08-01T12:23:14;4.72;;;1.65;;
75639;SDS011;64233;51.486;6.332;2023-08-01T12:25:39;4.68;;;2.15;;
75639;SDS011;64233;51.486;6.332;2023-08-01T12:28:05;6.30;;;1.73;;
75639;SDS011;64233;51.486;6.332;2023-08-01T12:30:30;6.83;;;1.97;;
75639;SDS011;64233;51.486;6.332;2023-08-01T12:32:55;5.70;;;1.77;;
75639;SDS011;64233;51.486;6.332;2023-08-01T12:35:20;3.70;;;1.77;;
75639;SDS011;64233;51.486;6.332;2023-08-01T12:37:46;4.88;;;2.08;;
75639;SDS011;64233;51.486;6.332;2023-08-01T12:40:11;7.30;;;1.93;;
75639;SDS011;64233;51.486;6.332;2023-08-01T12:42:36;6.80;;;1.80;;
75639;SDS011;64233;51.486;6.332;2023-08-01T12:45:02;5.15;;;1.45;;
75639;SDS011;64233;51.486;6.332;2023-08-01T12:47:28;5.80;;;1.40;;
75639;SDS011;64233;51.486;6.332;2023-08-01T12:49:53;6.68;;;1.73;;
75639;SDS011;64233;51.486;6.332;2023-08-01T12:52:22;9.18;;;1.98;;
75639;SDS011;64233;51.486;6.332;2023-08-01T12:54:51;3.30;;;1.55;;
75639;SDS011;64233;51.486;6.332;2023-08-01T12:57:16;7.40;;;1.93;;
75639;SDS011;64233;51.486;6.332;2023-08-01T12:59:42;2.53;;;1.30;;
75639;SDS011;64233;51.486;6.332;2023-08-01T13:02:07;6.40;;;1.63;;
75639;SDS011;64233;51.486;6.332;2023-08-01T13:04:33;3.50;;;1.58;;
75639;SDS011;64233;51.486;6.332;2023-08-01T13:06:59;5.47;;;1.20;;
75639;SDS011;64233;51.486;6.332;2023-08-01T13:09:24;4.70;;;1.27;;
75639;SDS011;64233;51.486;6.332;2023-08-01T13:11:50;3.83;;;2.08;;
75639;SDS011;64233;51.486;6.332;2023-08-01T13:14:15;2.22;;;1.20;;
75639;SDS011;64233;51.486;6.332;2023-08-01T13:16:40;1.30;;;1.20;;
75639;SDS011;64233;51.486;6.332;2023-08-01T13:19:05;4.28;;;1.80;;
75639;SDS011;64233;51.486;6.332;2023-08-01T13:21:32;4.43;;;1.30;;
75639;SDS011;64233;51.486;6.332;2023-08-01T13:23:59;3.95;;;1.65;;
75639;SDS011;64233;51.486;6.332;2023-08-01T13:26:24;5.82;;;1.20;;
75639;SDS011;64233;51.486;6.332;2023-08-01T13:28:50;3.70;;;1.35;;
75639;SDS011;64233;51.486;6.332;2023-08-01T13:31:15;2.50;;;1.23;;
75639;SDS011;64233;51.486;6.332;2023-08-01T13:33:40;6.53;;;1.45;;
75639;SDS011;64233;51.486;6.332;2023-08-01T13:36:06;4.60;;;1.35;;
75639;SDS011;64233;51.486;6.332;2023-08-01T13:38:31;2.30;;;1.20;;
75639;SDS011;64233;51.486;6.332;2023-08-01T13:40:58;4.90;;;1.20;;
75639;SDS011;64233;51.486;6.332;2023-08-01T13:43:25;3.92;;;1.75;;
75639;SDS011;64233;51.486;6.332;2023-08-01T13:45:50;7.13;;;1.80;;
75639;SDS011;64233;51.486;6.332;2023-08-01T13:48:15;5.57;;;1.45;;
75639;SDS011;64233;51.486;6.332;2023-08-01T13:50:41;4.20;;;1.10;;
75639;SDS011;64233;51.486;6.332;2023-08-01T13:53:06;4.67;;;1.50;;
75639;SDS011;64233;51.486;6.332;2023-08-01T13:55:35;6.47;;;1.52;;
75639;SDS011;64233;51.486;6.332;2023-08-01T13:58:00;6.90;;;1.20;;
75639;SDS011;64233;51.486;6.332;2023-08-01T14:00:26;5.78;;;1.70;;
75639;SDS011;64233;51.486;6.332;2023-08-01T14:02:51;8.13;;;1.48;;
75639;SDS011;64233;51.486;6.332;2023-08-01T14:05:16;2.58;;;0.93;;
75639;SDS011;64233;51.486;6.332;2023-08-01T14:07:42;2.13;;;1.00;;
75639;SDS011;64233;51.486;6.332;2023-08-01T14:10:07;2.73;;;1.20;;
75639;SDS011;64233;51.486;6.332;2023-08-01T14:12:34;3.50;;;1.35;;
75639;SDS011;64233;51.486;6.332;2023-08-01T14:14:59;3.83;;;1.13;;
75639;SDS011;64233;51.486;6.332;2023-08-01T14:17:24;5.23;;;1.73;;
75639;SDS011;64233;51.486;6.332;2023-08-01T14:19:50;5.70;;;1.75;;
75639;SDS011;64233;51.486;6.332;2023-08-01T14:22:15;4.35;;;1.58;;
75639;SDS011;64233;51.486;6.332;2023-08-01T14:24:40;9.13;;;2.20;;
75639;SDS011;64233;51.486;6.332;2023-08-01T14:27:07;1.77;;;1.35;;
75639;SDS011;64233;51.486;6.332;2023-08-01T14:29:33;3.63;;;1.25;;
75639;SDS011;64233;51.486;6.332;2023-08-01T14:31:58;8.93;;;1.92;;
75639;SDS011;64233;51.486;6.332;2023-08-01T14:34:23;18.63;;;2.88;;
75639;SDS011;64233;51.486;6.332;2023-08-01T14:36:49;11.15;;;2.05;;
75639;SDS011;64233;51.486;6.332;2023-08-01T14:39:14;3.43;;;1.07;;
75639;SDS011;64233;51.486;6.332;2023-08-01T14:41:39;2.13;;;1.30;;